Main page
METAR-TAF:

METAR-TAF

Airports :

Iași International Airport

Iasi, Romania

latitude: 47-10N, longitude: 027-38E, elevation: 102 m

Current weather observation

The report was made 26 minutes ago, at 11:00 UTC
Wind 8 kt from the West/Southwest, varying between South/Southwest and West
Temperature 13°C
Humidity 24%
Pressure 1019 hPa
Visibility 10 km or more
no clouds below 1500 m and no cumulonimbus

METAR: LRIA 221100Z 25008KT 200V280 CAVOK 13/M07 Q1019

Time: 13:26 (11:26 UTC)

Forecast

The report was made 3 hours and 26 minutes ago, at 08:00 UTC
Forecast valid from 22 at 09 UTC to 22 at 18 UTC
Wind 6 kt from the Southwest
Visibility 10 km or more
no clouds below 1500 m and no cumulonimbus
Becoming
from 22 at 12 UTC to 22 at 14 UTC
Wind 10 kt from the West/Northwest

TAF: LRIA 220800Z 2209/2218 23006KT CAVOK BECMG 2212/2214 30010KT

Weather observations and forecasts of more than 4000 airports (METAR and TAF reports).

The available stations are represented by yellow and red dots on the map.

Hover mouse over dot to see the name of the station.

Then click to see weather observations and forecasts.

To change the map : click on the green buttons with a black cross to zoom in, on the green button with a dash to zoom out, or on the green arrows for adjacent maps.


METAR-TAF: